Terminal Aerodrome Forecast
Issued by NWS Wichita, KS

Home | Current Version | Previous Version | Graphics & Text | Print | Product List | Glossary On
Versions: 1 2 3 4 5 6 7 8 9 10 11 12 13 14 15
000
FTUS43 KICT 100500
TAFICT
TAF
KICT 100527Z 1006/1106 14012KT P6SM SCT070 BKN150
     FM100700 14013KT P6SM VCTS SCT050 OVC090CB
      TEMPO 1008/1012 6SM -TSRA BKN040CB
     FM101300 14014G20KT P6SM SCT080 BKN150
     FM101800 15016G24KT P6SM SCT100
     FM110100 16014G21KT P6SM SKC=

USA.gov is the U.S. government's official web portal to all federal, state and local government web resources and services.